sensor_id;sensor_type;location;lat;lon;timestamp;P1;durP1;ratioP1;P2;durP2;ratioP2
62149;SDS011;48134;53.586;10.610;2024-03-02T00:02:20;44.80;;;22.02;;
62149;SDS011;48134;53.586;10.610;2024-03-02T00:04:53;45.93;;;21.27;;
62149;SDS011;48134;53.586;10.610;2024-03-02T00:07:27;46.63;;;21.92;;
62149;SDS011;48134;53.586;10.610;2024-03-02T00:09:55;43.72;;;21.48;;
62149;SDS011;48134;53.586;10.610;2024-03-02T00:12:29;45.97;;;21.23;;
62149;SDS011;48134;53.586;10.610;2024-03-02T00:15:04;43.78;;;20.80;;
62149;SDS011;48134;53.586;10.610;2024-03-02T00:17:39;43.92;;;21.15;;
62149;SDS011;48134;53.586;10.610;2024-03-02T00:20:12;48.03;;;22.00;;
62149;SDS011;48134;53.586;10.610;2024-03-02T00:22:50;42.03;;;20.85;;
62149;SDS011;48134;53.586;10.610;2024-03-02T00:25:24;44.20;;;21.02;;
62149;SDS011;48134;53.586;10.610;2024-03-02T00:27:58;44.15;;;21.00;;
62149;SDS011;48134;53.586;10.610;2024-03-02T00:30:46;46.70;;;22.27;;
62149;SDS011;48134;53.586;10.610;2024-03-02T00:33:30;47.37;;;21.70;;
62149;SDS011;48134;53.586;10.610;2024-03-02T00:36:00;44.40;;;21.05;;
62149;SDS011;48134;53.586;10.610;2024-03-02T00:38:35;43.10;;;21.27;;
62149;SDS011;48134;53.586;10.610;2024-03-02T00:41:19;48.83;;;21.60;;
62149;SDS011;48134;53.586;10.610;2024-03-02T00:43:58;42.92;;;21.00;;
62149;SDS011;48134;53.586;10.610;2024-03-02T00:46:27;45.90;;;21.55;;
62149;SDS011;48134;53.586;10.610;2024-03-02T00:48:58;45.63;;;21.73;;
62149;SDS011;48134;53.586;10.610;2024-03-02T00:51:32;46.83;;;22.02;;
62149;SDS011;48134;53.586;10.610;2024-03-02T00:54:08;46.77;;;21.53;;
62149;SDS011;48134;53.586;10.610;2024-03-02T00:56:43;43.45;;;22.10;;
62149;SDS011;48134;53.586;10.610;2024-03-02T00:59:17;45.17;;;22.35;;
62149;SDS011;48134;53.586;10.610;2024-03-02T01:01:45;45.15;;;21.70;;
62149;SDS011;48134;53.586;10.610;2024-03-02T01:04:13;46.80;;;22.07;;
62149;SDS011;48134;53.586;10.610;2024-03-02T01:06:46;47.40;;;22.23;;
62149;SDS011;48134;53.586;10.610;2024-03-02T01:09:15;45.67;;;22.60;;
62149;SDS011;48134;53.586;10.610;2024-03-02T01:11:49;44.88;;;21.10;;
62149;SDS011;48134;53.586;10.610;2024-03-02T01:14:24;45.80;;;21.83;;
62149;SDS011;48134;53.586;10.610;2024-03-02T01:16:57;43.72;;;22.00;;
62149;SDS011;48134;53.586;10.610;2024-03-02T01:19:31;44.05;;;21.90;;
62149;SDS011;48134;53.586;10.610;2024-03-02T01:22:04;49.27;;;22.03;;
62149;SDS011;48134;53.586;10.610;2024-03-02T01:24:33;44.50;;;22.08;;
62149;SDS011;48134;53.586;10.610;2024-03-02T01:27:01;45.70;;;22.17;;
62149;SDS011;48134;53.586;10.610;2024-03-02T01:29:30;48.10;;;22.58;;
62149;SDS011;48134;53.586;10.610;2024-03-02T01:32:04;47.50;;;23.50;;
62149;SDS011;48134;53.586;10.610;2024-03-02T01:34:37;48.90;;;22.65;;
62149;SDS011;48134;53.586;10.610;2024-03-02T01:37:11;46.78;;;22.30;;
62149;SDS011;48134;53.586;10.610;2024-03-02T01:39:39;44.50;;;21.92;;
62149;SDS011;48134;53.586;10.610;2024-03-02T01:42:12;47.40;;;22.05;;
62149;SDS011;48134;53.586;10.610;2024-03-02T01:44:47;46.17;;;22.30;;
62149;SDS011;48134;53.586;10.610;2024-03-02T01:47:20;46.20;;;21.58;;
62149;SDS011;48134;53.586;10.610;2024-03-02T01:49:48;46.58;;;22.63;;
62149;SDS011;48134;53.586;10.610;2024-03-02T01:52:22;44.88;;;21.23;;
62149;SDS011;48134;53.586;10.610;2024-03-02T01:54:50;47.28;;;23.08;;
62149;SDS011;48134;53.586;10.610;2024-03-02T01:57:18;47.13;;;22.60;;
62149;SDS011;48134;53.586;10.610;2024-03-02T01:59:48;48.13;;;22.73;;
62149;SDS011;48134;53.586;10.610;2024-03-02T02:02:17;44.17;;;22.02;;
62149;SDS011;48134;53.586;10.610;2024-03-02T02:04:50;48.65;;;22.77;;
62149;SDS011;48134;53.586;10.610;2024-03-02T02:07:19;52.92;;;23.00;;
62149;SDS011;48134;53.586;10.610;2024-03-02T02:09:47;48.70;;;22.92;;
62149;SDS011;48134;53.586;10.610;2024-03-02T02:12:21;43.80;;;21.90;;
62149;SDS011;48134;53.586;10.610;2024-03-02T02:14:56;46.83;;;23.35;;
62149;SDS011;48134;53.586;10.610;2024-03-02T02:17:29;51.93;;;22.97;;
62149;SDS011;48134;53.586;10.610;2024-03-02T02:20:03;49.03;;;23.05;;
62149;SDS011;48134;53.586;10.610;2024-03-02T02:22:38;46.47;;;23.13;;
62149;SDS011;48134;53.586;10.610;2024-03-02T02:25:06;44.97;;;22.40;;
62149;SDS011;48134;53.586;10.610;2024-03-02T02:27:40;50.40;;;23.10;;
62149;SDS011;48134;53.586;10.610;2024-03-02T02:30:13;48.47;;;22.17;;
62149;SDS011;48134;53.586;10.610;2024-03-02T02:32:42;45.63;;;21.92;;
62149;SDS011;48134;53.586;10.610;2024-03-02T02:35:10;46.67;;;22.83;;
62149;SDS011;48134;53.586;10.610;2024-03-02T02:37:46;47.22;;;22.85;;
62149;SDS011;48134;53.586;10.610;2024-03-02T02:40:15;45.88;;;23.25;;
62149;SDS011;48134;53.586;10.610;2024-03-02T02:42:50;46.72;;;22.17;;
62149;SDS011;48134;53.586;10.610;2024-03-02T02:45:24;47.13;;;22.90;;
62149;SDS011;48134;53.586;10.610;2024-03-02T02:47:57;46.15;;;23.27;;
62149;SDS011;48134;53.586;10.610;2024-03-02T02:50:33;46.97;;;22.70;;
62149;SDS011;48134;53.586;10.610;2024-03-02T02:53:05;48.03;;;23.40;;
62149;SDS011;48134;53.586;10.610;2024-03-02T02:55:41;47.03;;;22.67;;
62149;SDS011;48134;53.586;10.610;2024-03-02T02:58:10;47.90;;;22.67;;
62149;SDS011;48134;53.586;10.610;2024-03-02T03:00:43;47.65;;;23.25;;
62149;SDS011;48134;53.586;10.610;2024-03-02T03:03:16;46.67;;;23.15;;
62149;SDS011;48134;53.586;10.610;2024-03-02T03:05:49;48.03;;;22.30;;
62149;SDS011;48134;53.586;10.610;2024-03-02T03:08:25;49.70;;;23.58;;
62149;SDS011;48134;53.586;10.610;2024-03-02T03:10:58;48.30;;;23.10;;
62149;SDS011;48134;53.586;10.610;2024-03-02T03:13:31;51.97;;;23.80;;
62149;SDS011;48134;53.586;10.610;2024-03-02T03:15:59;47.22;;;23.25;;
62149;SDS011;48134;53.586;10.610;2024-03-02T03:18:28;51.55;;;23.70;;
62149;SDS011;48134;53.586;10.610;2024-03-02T03:21:01;49.40;;;23.07;;
62149;SDS011;48134;53.586;10.610;2024-03-02T03:23:31;50.65;;;23.55;;
62149;SDS011;48134;53.586;10.610;2024-03-02T03:25:59;50.08;;;23.40;;
62149;SDS011;48134;53.586;10.610;2024-03-02T03:28:28;46.15;;;23.45;;
62149;SDS011;48134;53.586;10.610;2024-03-02T03:31:01;53.90;;;25.33;;
62149;SDS011;48134;53.586;10.610;2024-03-02T03:33:30;49.22;;;24.00;;
62149;SDS011;48134;53.586;10.610;2024-03-02T03:36:03;53.35;;;25.30;;
62149;SDS011;48134;53.586;10.610;2024-03-02T03:38:33;48.47;;;23.35;;
62149;SDS011;48134;53.586;10.610;2024-03-02T03:41:01;51.45;;;23.98;;
62149;SDS011;48134;53.586;10.610;2024-03-02T03:43:35;50.03;;;24.77;;
62149;SDS011;48134;53.586;10.610;2024-03-02T03:46:04;52.13;;;23.42;;
62149;SDS011;48134;53.586;10.610;2024-03-02T03:48:32;57.05;;;24.88;;
62149;SDS011;48134;53.586;10.610;2024-03-02T03:51:05;49.85;;;24.13;;
62149;SDS011;48134;53.586;10.610;2024-03-02T03:53:35;52.20;;;25.05;;
62149;SDS011;48134;53.586;10.610;2024-03-02T03:56:08;51.67;;;24.50;;
62149;SDS011;48134;53.586;10.610;2024-03-02T03:58:41;52.92;;;24.05;;
62149;SDS011;48134;53.586;10.610;2024-03-02T04:01:14;51.60;;;24.90;;
62149;SDS011;48134;53.586;10.610;2024-03-02T04:03:48;50.47;;;24.27;;
62149;SDS011;48134;53.586;10.610;2024-03-02T04:06:21;49.80;;;24.70;;
62149;SDS011;48134;53.586;10.610;2024-03-02T04:08:50;52.85;;;24.58;;
62149;SDS011;48134;53.586;10.610;2024-03-02T04:11:18;50.72;;;24.30;;
62149;SDS011;48134;53.586;10.610;2024-03-02T04:13:47;51.88;;;24.77;;
62149;SDS011;48134;53.586;10.610;2024-03-02T04:16:20;49.53;;;24.08;;
62149;SDS011;48134;53.586;10.610;2024-03-02T04:18:53;47.40;;;23.92;;
62149;SDS011;48134;53.586;10.610;2024-03-02T04:21:28;52.83;;;24.98;;
62149;SDS011;48134;53.586;10.610;2024-03-02T04:24:03;51.13;;;26.15;;
62149;SDS011;48134;53.586;10.610;2024-03-02T04:26:31;56.22;;;26.23;;
62149;SDS011;48134;53.586;10.610;2024-03-02T04:29:04;56.30;;;25.83;;
62149;SDS011;48134;53.586;10.610;2024-03-02T04:31:38;50.28;;;25.05;;
62149;SDS011;48134;53.586;10.610;2024-03-02T04:34:11;50.17;;;24.50;;
62149;SDS011;48134;53.586;10.610;2024-03-02T04:36:39;51.97;;;24.25;;
62149;SDS011;48134;53.586;10.610;2024-03-02T04:39:14;48.38;;;23.60;;
62149;SDS011;48134;53.586;10.610;2024-03-02T04:41:47;49.20;;;23.75;;
62149;SDS011;48134;53.586;10.610;2024-03-02T04:44:20;50.72;;;23.17;;
62149;SDS011;48134;53.586;10.610;2024-03-02T04:46:48;52.80;;;23.15;;
62149;SDS011;48134;53.586;10.610;2024-03-02T04:49:22;49.67;;;24.00;;
62149;SDS011;48134;53.586;10.610;2024-03-02T04:51:55;50.63;;;23.92;;
62149;SDS011;48134;53.586;10.610;2024-03-02T04:54:30;52.33;;;24.10;;
62149;SDS011;48134;53.586;10.610;2024-03-02T04:56:58;52.50;;;24.42;;
62149;SDS011;48134;53.586;10.610;2024-03-02T04:59:31;51.57;;;24.40;;
62149;SDS011;48134;53.586;10.610;2024-03-02T05:02:04;52.30;;;25.63;;
62149;SDS011;48134;53.586;10.610;2024-03-02T05:04:38;56.95;;;24.80;;
62149;SDS011;48134;53.586;10.610;2024-03-02T05:07:11;54.05;;;24.67;;
62149;SDS011;48134;53.586;10.610;2024-03-02T05:09:46;53.13;;;25.25;;
62149;SDS011;48134;53.586;10.610;2024-03-02T05:12:19;55.05;;;25.23;;
62149;SDS011;48134;53.586;10.610;2024-03-02T05:15:07;55.23;;;25.30;;
62149;SDS011;48134;53.586;10.610;2024-03-02T05:17:41;54.95;;;25.98;;
62149;SDS011;48134;53.586;10.610;2024-03-02T05:20:15;55.35;;;26.00;;
62149;SDS011;48134;53.586;10.610;2024-03-02T05:22:48;52.40;;;24.90;;
62149;SDS011;48134;53.586;10.610;2024-03-02T05:25:18;54.92;;;25.20;;
62149;SDS011;48134;53.586;10.610;2024-03-02T05:27:51;55.78;;;26.52;;
62149;SDS011;48134;53.586;10.610;2024-03-02T05:30:25;57.83;;;26.17;;
62149;SDS011;48134;53.586;10.610;2024-03-02T05:32:58;55.00;;;24.63;;
62149;SDS011;48134;53.586;10.610;2024-03-02T05:35:27;58.67;;;25.83;;
62149;SDS011;48134;53.586;10.610;2024-03-02T05:37:55;62.13;;;25.85;;
62149;SDS011;48134;53.586;10.610;2024-03-02T05:40:29;55.65;;;25.02;;
62149;SDS011;48134;53.586;10.610;2024-03-02T05:42:57;55.30;;;26.13;;
62149;SDS011;48134;53.586;10.610;2024-03-02T05:45:26;56.73;;;25.87;;
62149;SDS011;48134;53.586;10.610;2024-03-02T05:47:54;57.75;;;25.98;;
62149;SDS011;48134;53.586;10.610;2024-03-02T05:50:22;52.20;;;25.65;;
62149;SDS011;48134;53.586;10.610;2024-03-02T05:52:55;58.67;;;26.40;;
62149;SDS011;48134;53.586;10.610;2024-03-02T05:55:30;54.17;;;24.63;;
62149;SDS011;48134;53.586;10.610;2024-03-02T05:57:58;53.72;;;25.60;;
62149;SDS011;48134;53.586;10.610;2024-03-02T06:00:42;55.60;;;25.10;;
62149;SDS011;48134;53.586;10.610;2024-03-02T06:03:15;54.47;;;26.00;;
62149;SDS011;48134;53.586;10.610;2024-03-02T06:05:48;61.92;;;27.52;;
62149;SDS011;48134;53.586;10.610;2024-03-02T06:08:17;57.60;;;26.13;;
62149;SDS011;48134;53.586;10.610;2024-03-02T06:10:52;55.03;;;25.83;;
62149;SDS011;48134;53.586;10.610;2024-03-02T06:13:25;55.50;;;25.85;;
62149;SDS011;48134;53.586;10.610;2024-03-02T06:15:54;55.40;;;25.73;;
62149;SDS011;48134;53.586;10.610;2024-03-02T06:18:22;59.67;;;26.50;;
62149;SDS011;48134;53.586;10.610;2024-03-02T06:20:55;57.97;;;26.50;;
62149;SDS011;48134;53.586;10.610;2024-03-02T06:23:28;57.47;;;27.10;;
62149;SDS011;48134;53.586;10.610;2024-03-02T06:26:03;57.70;;;26.45;;
62149;SDS011;48134;53.586;10.610;2024-03-02T06:28:32;51.63;;;25.15;;
62149;SDS011;48134;53.586;10.610;2024-03-02T06:31:00;58.65;;;26.55;;
62149;SDS011;48134;53.586;10.610;2024-03-02T06:33:29;53.20;;;25.38;;
62149;SDS011;48134;53.586;10.610;2024-03-02T06:35:57;55.83;;;25.65;;
62149;SDS011;48134;53.586;10.610;2024-03-02T06:38:26;51.55;;;25.48;;
62149;SDS011;48134;53.586;10.610;2024-03-02T06:40:59;54.87;;;25.43;;
62149;SDS011;48134;53.586;10.610;2024-03-02T06:43:34;52.75;;;24.40;;
62149;SDS011;48134;53.586;10.610;2024-03-02T06:46:02;53.03;;;24.47;;
62149;SDS011;48134;53.586;10.610;2024-03-02T06:48:31;54.15;;;25.10;;
62149;SDS011;48134;53.586;10.610;2024-03-02T06:50:59;57.73;;;25.90;;
62149;SDS011;48134;53.586;10.610;2024-03-02T06:53:33;54.47;;;24.98;;
62149;SDS011;48134;53.586;10.610;2024-03-02T06:56:01;54.37;;;24.50;;
62149;SDS011;48134;53.586;10.610;2024-03-02T06:58:35;56.65;;;26.55;;
62149;SDS011;48134;53.586;10.610;2024-03-02T07:01:09;60.25;;;28.52;;
62149;SDS011;48134;53.586;10.610;2024-03-02T07:03:42;55.72;;;27.50;;
62149;SDS011;48134;53.586;10.610;2024-03-02T07:06:15;56.63;;;25.63;;
62149;SDS011;48134;53.586;10.610;2024-03-02T07:08:44;55.40;;;25.63;;
62149;SDS011;48134;53.586;10.610;2024-03-02T07:11:17;51.47;;;24.50;;
62149;SDS011;48134;53.586;10.610;2024-03-02T07:13:46;54.10;;;25.27;;
62149;SDS011;48134;53.586;10.610;2024-03-02T07:16:19;51.27;;;24.53;;
62149;SDS011;48134;53.586;10.610;2024-03-02T07:18:54;55.55;;;25.30;;
62149;SDS011;48134;53.586;10.610;2024-03-02T07:21:28;51.22;;;24.83;;
62149;SDS011;48134;53.586;10.610;2024-03-02T07:23:57;51.38;;;24.67;;
62149;SDS011;48134;53.586;10.610;2024-03-02T07:26:31;50.30;;;24.88;;
62149;SDS011;48134;53.586;10.610;2024-03-02T07:29:05;48.67;;;23.08;;
62149;SDS011;48134;53.586;10.610;2024-03-02T07:31:39;49.40;;;22.83;;
62149;SDS011;48134;53.586;10.610;2024-03-02T07:34:07;49.63;;;23.63;;
62149;SDS011;48134;53.586;10.610;2024-03-02T07:36:40;50.28;;;24.48;;
62149;SDS011;48134;53.586;10.610;2024-03-02T07:39:13;49.30;;;23.98;;
62149;SDS011;48134;53.586;10.610;2024-03-02T07:41:42;48.45;;;23.45;;
62149;SDS011;48134;53.586;10.610;2024-03-02T07:44:17;51.63;;;24.60;;
62149;SDS011;48134;53.586;10.610;2024-03-02T07:46:50;50.87;;;24.37;;
62149;SDS011;48134;53.586;10.610;2024-03-02T07:49:23;48.47;;;23.92;;
62149;SDS011;48134;53.586;10.610;2024-03-02T07:51:52;46.93;;;23.67;;
62149;SDS011;48134;53.586;10.610;2024-03-02T07:54:25;52.47;;;25.13;;
62149;SDS011;48134;53.586;10.610;2024-03-02T07:56:58;54.15;;;26.08;;
62149;SDS011;48134;53.586;10.610;2024-03-02T07:59:28;54.92;;;26.17;;
62149;SDS011;48134;53.586;10.610;2024-03-02T08:02:01;52.45;;;25.70;;
62149;SDS011;48134;53.586;10.610;2024-03-02T08:04:35;58.40;;;27.45;;
62149;SDS011;48134;53.586;10.610;2024-03-02T08:07:04;55.80;;;28.10;;
62149;SDS011;48134;53.586;10.610;2024-03-02T08:09:32;53.55;;;26.77;;
62149;SDS011;48134;53.586;10.610;2024-03-02T08:12:05;48.28;;;24.50;;
62149;SDS011;48134;53.586;10.610;2024-03-02T08:14:40;51.80;;;25.67;;
62149;SDS011;48134;53.586;10.610;2024-03-02T08:17:13;48.95;;;24.55;;
62149;SDS011;48134;53.586;10.610;2024-03-02T08:19:47;48.00;;;24.35;;
62149;SDS011;48134;53.586;10.610;2024-03-02T08:22:15;48.03;;;25.00;;
62149;SDS011;48134;53.586;10.610;2024-03-02T08:24:44;51.70;;;23.45;;
62149;SDS011;48134;53.586;10.610;2024-03-02T08:27:12;47.22;;;24.05;;
62149;SDS011;48134;53.586;10.610;2024-03-02T08:29:42;48.53;;;23.00;;
62149;SDS011;48134;53.586;10.610;2024-03-02T08:32:11;45.08;;;23.52;;
62149;SDS011;48134;53.586;10.610;2024-03-02T08:34:39;47.15;;;22.65;;
62149;SDS011;48134;53.586;10.610;2024-03-02T08:37:12;48.08;;;23.15;;
62149;SDS011;48134;53.586;10.610;2024-03-02T08:39:45;45.22;;;22.83;;
62149;SDS011;48134;53.586;10.610;2024-03-02T08:42:18;39.70;;;22.20;;
62149;SDS011;48134;53.586;10.610;2024-03-02T08:44:53;44.33;;;22.73;;
62149;SDS011;48134;53.586;10.610;2024-03-02T08:47:26;42.40;;;22.42;;
62149;SDS011;48134;53.586;10.610;2024-03-02T08:50:00;47.00;;;23.23;;
62149;SDS011;48134;53.586;10.610;2024-03-02T08:52:33;47.22;;;23.13;;
62149;SDS011;48134;53.586;10.610;2024-03-02T08:55:06;43.28;;;22.05;;
62149;SDS011;48134;53.586;10.610;2024-03-02T08:57:40;41.50;;;22.20;;
62149;SDS011;48134;53.586;10.610;2024-03-02T09:00:15;46.47;;;21.73;;
62149;SDS011;48134;53.586;10.610;2024-03-02T09:02:45;43.10;;;22.70;;
62149;SDS011;48134;53.586;10.610;2024-03-02T09:05:14;36.57;;;19.43;;
62149;SDS011;48134;53.586;10.610;2024-03-02T09:07:43;40.47;;;20.17;;
62149;SDS011;48134;53.586;10.610;2024-03-02T09:10:16;41.20;;;20.40;;
62149;SDS011;48134;53.586;10.610;2024-03-02T09:12:44;42.47;;;20.63;;
62149;SDS011;48134;53.586;10.610;2024-03-02T09:15:19;36.17;;;19.35;;
62149;SDS011;48134;53.586;10.610;2024-03-02T09:17:52;36.63;;;19.75;;
62149;SDS011;48134;53.586;10.610;2024-03-02T09:20:26;38.28;;;19.52;;
62149;SDS011;48134;53.586;10.610;2024-03-02T09:22:59;38.85;;;19.75;;
62149;SDS011;48134;53.586;10.610;2024-03-02T09:25:32;37.35;;;19.25;;
62149;SDS011;48134;53.586;10.610;2024-03-02T09:28:05;35.17;;;18.90;;
62149;SDS011;48134;53.586;10.610;2024-03-02T09:30:40;34.92;;;18.35;;
62149;SDS011;48134;53.586;10.610;2024-03-02T09:33:14;29.80;;;16.67;;
62149;SDS011;48134;53.586;10.610;2024-03-02T09:35:47;30.95;;;16.65;;
62149;SDS011;48134;53.586;10.610;2024-03-02T09:38:16;32.13;;;16.75;;
62149;SDS011;48134;53.586;10.610;2024-03-02T09:40:44;31.48;;;15.98;;
62149;SDS011;48134;53.586;10.610;2024-03-02T09:43:18;30.25;;;15.80;;
62149;SDS011;48134;53.586;10.610;2024-03-02T09:45:53;30.35;;;15.57;;
62149;SDS011;48134;53.586;10.610;2024-03-02T09:48:26;26.58;;;14.93;;
62149;SDS011;48134;53.586;10.610;2024-03-02T09:51:00;28.40;;;15.38;;
62149;SDS011;48134;53.586;10.610;2024-03-02T09:53:35;26.47;;;14.47;;
62149;SDS011;48134;53.586;10.610;2024-03-02T09:56:08;25.75;;;13.82;;
62149;SDS011;48134;53.586;10.610;2024-03-02T09:58:41;25.93;;;13.97;;
62149;SDS011;48134;53.586;10.610;2024-03-02T10:01:17;25.10;;;13.40;;
62149;SDS011;48134;53.586;10.610;2024-03-02T10:03:50;24.15;;;13.80;;
62149;SDS011;48134;53.586;10.610;2024-03-02T10:06:24;24.70;;;13.27;;
62149;SDS011;48134;53.586;10.610;2024-03-02T10:08:54;24.35;;;13.65;;
62149;SDS011;48134;53.586;10.610;2024-03-02T10:11:28;23.35;;;13.63;;
62149;SDS011;48134;53.586;10.610;2024-03-02T10:14:06;23.97;;;13.17;;
62149;SDS011;48134;53.586;10.610;2024-03-02T10:16:42;24.27;;;12.40;;
62149;SDS011;48134;53.586;10.610;2024-03-02T10:19:17;24.48;;;12.50;;
62149;SDS011;48134;53.586;10.610;2024-03-02T10:21:47;22.40;;;12.63;;
62149;SDS011;48134;53.586;10.610;2024-03-02T10:24:21;23.60;;;12.13;;
62149;SDS011;48134;53.586;10.610;2024-03-02T10:26:55;23.77;;;13.07;;
62149;SDS011;48134;53.586;10.610;2024-03-02T10:29:29;22.58;;;12.75;;
62149;SDS011;48134;53.586;10.610;2024-03-02T10:32:04;24.05;;;12.45;;
62149;SDS011;48134;53.586;10.610;2024-03-02T10:34:39;20.73;;;12.00;;
62149;SDS011;48134;53.586;10.610;2024-03-02T10:37:14;22.83;;;11.70;;
62149;SDS011;48134;53.586;10.610;2024-03-02T10:39:43;23.80;;;12.32;;
62149;SDS011;48134;53.586;10.610;2024-03-02T10:42:18;22.23;;;12.10;;
62149;SDS011;48134;53.586;10.610;2024-03-02T10:44:52;21.83;;;12.23;;
62149;SDS011;48134;53.586;10.610;2024-03-02T10:47:27;22.70;;;12.35;;
62149;SDS011;48134;53.586;10.610;2024-03-02T10:50:04;21.88;;;11.73;;
62149;SDS011;48134;53.586;10.610;2024-03-02T10:52:40;22.63;;;12.03;;
62149;SDS011;48134;53.586;10.610;2024-03-02T10:55:14;22.38;;;11.90;;
62149;SDS011;48134;53.586;10.610;2024-03-02T10:57:45;21.65;;;11.63;;
62149;SDS011;48134;53.586;10.610;2024-03-02T11:00:24;21.40;;;11.63;;
62149;SDS011;48134;53.586;10.610;2024-03-02T11:03:04;22.63;;;12.05;;
62149;SDS011;48134;53.586;10.610;2024-03-02T11:05:41;22.90;;;11.88;;
62149;SDS011;48134;53.586;10.610;2024-03-02T11:08:12;20.65;;;11.80;;
62149;SDS011;48134;53.586;10.610;2024-03-02T11:10:45;21.52;;;11.50;;
62149;SDS011;48134;53.586;10.610;2024-03-02T11:13:19;22.88;;;11.48;;
62149;SDS011;48134;53.586;10.610;2024-03-02T11:15:56;21.27;;;11.70;;
62149;SDS011;48134;53.586;10.610;2024-03-02T11:18:38;21.85;;;11.98;;
62149;SDS011;48134;53.586;10.610;2024-03-02T11:21:12;19.52;;;11.05;;
62149;SDS011;48134;53.586;10.610;2024-03-02T11:23:46;20.40;;;11.57;;
62149;SDS011;48134;53.586;10.610;2024-03-02T11:26:19;22.00;;;11.53;;
62149;SDS011;48134;53.586;10.610;2024-03-02T11:28:50;22.73;;;10.93;;
62149;SDS011;48134;53.586;10.610;2024-03-02T11:31:18;19.40;;;10.47;;
62149;SDS011;48134;53.586;10.610;2024-03-02T11:33:53;18.20;;;10.35;;
62149;SDS011;48134;53.586;10.610;2024-03-02T11:36:21;18.55;;;10.18;;
62149;SDS011;48134;53.586;10.610;2024-03-02T11:38:49;18.98;;;10.25;;
62149;SDS011;48134;53.586;10.610;2024-03-02T11:41:20;18.92;;;10.65;;
62149;SDS011;48134;53.586;10.610;2024-03-02T11:43:56;19.80;;;10.60;;
62149;SDS011;48134;53.586;10.610;2024-03-02T11:46:27;18.42;;;9.82;;
62149;SDS011;48134;53.586;10.610;2024-03-02T11:49:01;21.90;;;11.00;;
62149;SDS011;48134;53.586;10.610;2024-03-02T11:51:36;22.95;;;12.27;;
62149;SDS011;48134;53.586;10.610;2024-03-02T11:54:23;18.90;;;10.07;;
62149;SDS011;48134;53.586;10.610;2024-03-02T11:56:51;19.48;;;10.05;;
62149;SDS011;48134;53.586;10.610;2024-03-02T11:59:21;18.92;;;9.75;;
62149;SDS011;48134;53.586;10.610;2024-03-02T12:01:51;17.80;;;9.50;;
62149;SDS011;48134;53.586;10.610;2024-03-02T12:04:20;16.50;;;9.57;;
62149;SDS011;48134;53.586;10.610;2024-03-02T12:06:54;17.55;;;9.80;;
62149;SDS011;48134;53.586;10.610;2024-03-02T12:09:31;17.85;;;9.85;;
62149;SDS011;48134;53.586;10.610;2024-03-02T12:12:05;16.77;;;8.98;;
62149;SDS011;48134;53.586;10.610;2024-03-02T12:14:34;19.02;;;9.95;;
62149;SDS011;48134;53.586;10.610;2024-03-02T12:17:08;18.30;;;10.00;;
62149;SDS011;48134;53.586;10.610;2024-03-02T12:19:37;16.77;;;9.38;;
62149;SDS011;48134;53.586;10.610;2024-03-02T12:22:11;18.58;;;9.30;;
62149;SDS011;48134;53.586;10.610;2024-03-02T12:24:39;17.55;;;9.52;;
62149;SDS011;48134;53.586;10.610;2024-03-02T12:27:16;18.38;;;9.68;;
62149;SDS011;48134;53.586;10.610;2024-03-02T12:29:54;17.33;;;9.70;;
62149;SDS011;48134;53.586;10.610;2024-03-02T12:32:22;16.83;;;9.23;;
62149;SDS011;48134;53.586;10.610;2024-03-02T12:34:57;17.80;;;9.70;;
62149;SDS011;48134;53.586;10.610;2024-03-02T12:37:30;17.02;;;8.95;;
62149;SDS011;48134;53.586;10.610;2024-03-02T12:40:04;17.87;;;9.20;;
62149;SDS011;48134;53.586;10.610;2024-03-02T12:42:33;16.58;;;8.85;;
62149;SDS011;48134;53.586;10.610;2024-03-02T12:45:06;16.58;;;9.10;;
62149;SDS011;48134;53.586;10.610;2024-03-02T12:47:40;17.38;;;9.18;;
62149;SDS011;48134;53.586;10.610;2024-03-02T12:50:15;15.65;;;9.15;;
62149;SDS011;48134;53.586;10.610;2024-03-02T12:52:52;18.90;;;8.98;;
62149;SDS011;48134;53.586;10.610;2024-03-02T12:55:20;16.70;;;9.00;;
62149;SDS011;48134;53.586;10.610;2024-03-02T12:57:54;20.23;;;9.50;;
62149;SDS011;48134;53.586;10.610;2024-03-02T13:00:23;17.25;;;9.32;;
62149;SDS011;48134;53.586;10.610;2024-03-02T13:02:51;18.58;;;10.20;;
62149;SDS011;48134;53.586;10.610;2024-03-02T13:05:27;18.67;;;9.73;;
62149;SDS011;48134;53.586;10.610;2024-03-02T13:08:03;16.60;;;9.00;;
62149;SDS011;48134;53.586;10.610;2024-03-02T13:10:38;18.87;;;10.40;;
62149;SDS011;48134;53.586;10.610;2024-03-02T13:13:11;17.67;;;10.15;;
62149;SDS011;48134;53.586;10.610;2024-03-02T13:15:42;17.93;;;9.80;;
62149;SDS011;48134;53.586;10.610;2024-03-02T13:18:17;17.63;;;9.10;;
62149;SDS011;48134;53.586;10.610;2024-03-02T13:20:52;18.17;;;9.73;;
62149;SDS011;48134;53.586;10.610;2024-03-02T13:23:22;18.13;;;9.32;;
62149;SDS011;48134;53.586;10.610;2024-03-02T13:25:56;16.17;;;9.50;;
62149;SDS011;48134;53.586;10.610;2024-03-02T13:28:29;17.23;;;9.05;;
62149;SDS011;48134;53.586;10.610;2024-03-02T13:30:58;16.65;;;9.07;;
62149;SDS011;48134;53.586;10.610;2024-03-02T13:33:31;18.73;;;9.85;;
62149;SDS011;48134;53.586;10.610;2024-03-02T13:36:06;16.58;;;9.10;;
62149;SDS011;48134;53.586;10.610;2024-03-02T13:38:35;18.92;;;10.10;;
62149;SDS011;48134;53.586;10.610;2024-03-02T13:41:08;21.48;;;11.77;;
62149;SDS011;48134;53.586;10.610;2024-03-02T13:43:42;19.30;;;10.80;;
62149;SDS011;48134;53.586;10.610;2024-03-02T13:46:17;19.30;;;10.70;;
62149;SDS011;48134;53.586;10.610;2024-03-02T13:48:50;21.98;;;11.85;;
62149;SDS011;48134;53.586;10.610;2024-03-02T13:51:25;19.10;;;10.57;;
62149;SDS011;48134;53.586;10.610;2024-03-02T13:53:55;19.45;;;11.18;;
62149;SDS011;48134;53.586;10.610;2024-03-02T13:56:25;18.60;;;10.25;;
62149;SDS011;48134;53.586;10.610;2024-03-02T13:59:07;19.17;;;10.52;;
62149;SDS011;48134;53.586;10.610;2024-03-02T14:01:38;20.95;;;10.85;;
62149;SDS011;48134;53.586;10.610;2024-03-02T14:04:08;20.83;;;10.68;;
62149;SDS011;48134;53.586;10.610;2024-03-02T14:06:43;19.53;;;10.37;;
62149;SDS011;48134;53.586;10.610;2024-03-02T14:09:17;19.30;;;10.35;;
62149;SDS011;48134;53.586;10.610;2024-03-02T14:11:47;18.45;;;10.20;;
62149;SDS011;48134;53.586;10.610;2024-03-02T14:14:23;18.58;;;9.50;;
62149;SDS011;48134;53.586;10.610;2024-03-02T14:16:56;20.15;;;9.85;;
62149;SDS011;48134;53.586;10.610;2024-03-02T14:19:32;20.23;;;10.38;;
62149;SDS011;48134;53.586;10.610;2024-03-02T14:22:06;17.10;;;9.77;;
62149;SDS011;48134;53.586;10.610;2024-03-02T14:24:34;18.77;;;9.95;;
62149;SDS011;48134;53.586;10.610;2024-03-02T14:27:08;19.13;;;10.23;;
62149;SDS011;48134;53.586;10.610;2024-03-02T14:32:10;23.75;;;13.15;;
62149;SDS011;48134;53.586;10.610;2024-03-02T14:34:43;22.20;;;12.05;;
62149;SDS011;48134;53.586;10.610;2024-03-02T14:37:19;18.33;;;9.82;;
62149;SDS011;48134;53.586;10.610;2024-03-02T14:39:50;19.98;;;10.60;;
62149;SDS011;48134;53.586;10.610;2024-03-02T14:42:41;19.43;;;11.23;;
62149;SDS011;48134;53.586;10.610;2024-03-02T14:45:19;20.83;;;11.50;;